sensor_id;sensor_type;location;lat;lon;timestamp;P1;durP1;ratioP1;P2;durP2;ratioP2
3083;SDS011;1552;51.952;7.618;2023-11-21T00:01:31;13.10;;;8.30;;
3083;SDS011;1552;51.952;7.618;2023-11-21T00:03:57;12.00;;;7.33;;
3083;SDS011;1552;51.952;7.618;2023-11-21T00:06:24;15.40;;;8.10;;
3083;SDS011;1552;51.952;7.618;2023-11-21T00:08:51;14.30;;;8.70;;
3083;SDS011;1552;51.952;7.618;2023-11-21T00:11:18;20.17;;;8.80;;
3083;SDS011;1552;51.952;7.618;2023-11-21T00:13:44;18.00;;;8.70;;
3083;SDS011;1552;51.952;7.618;2023-11-21T00:16:10;16.03;;;8.77;;
3083;SDS011;1552;51.952;7.618;2023-11-21T00:18:37;17.47;;;8.03;;
3083;SDS011;1552;51.952;7.618;2023-11-21T00:21:03;14.97;;;8.40;;
3083;SDS011;1552;51.952;7.618;2023-11-21T00:23:29;18.83;;;8.03;;
3083;SDS011;1552;51.952;7.618;2023-11-21T00:25:57;16.30;;;8.63;;
3083;SDS011;1552;51.952;7.618;2023-11-21T00:28:24;15.80;;;8.27;;
3083;SDS011;1552;51.952;7.618;2023-11-21T00:30:50;13.87;;;8.50;;
3083;SDS011;1552;51.952;7.618;2023-11-21T00:33:16;15.00;;;7.83;;
3083;SDS011;1552;51.952;7.618;2023-11-21T00:35:43;15.83;;;8.40;;
3083;SDS011;1552;51.952;7.618;2023-11-21T00:38:09;15.67;;;8.47;;
3083;SDS011;1552;51.952;7.618;2023-11-21T00:40:35;12.97;;;8.60;;
3083;SDS011;1552;51.952;7.618;2023-11-21T00:43:04;15.43;;;8.40;;
3083;SDS011;1552;51.952;7.618;2023-11-21T00:45:30;15.27;;;8.73;;
3083;SDS011;1552;51.952;7.618;2023-11-21T00:47:56;12.77;;;8.10;;
3083;SDS011;1552;51.952;7.618;2023-11-21T00:50:23;17.40;;;7.97;;
3083;SDS011;1552;51.952;7.618;2023-11-21T00:52:49;15.30;;;8.87;;
3083;SDS011;1552;51.952;7.618;2023-11-21T00:55:16;13.83;;;8.97;;
3083;SDS011;1552;51.952;7.618;2023-11-21T00:57:43;12.97;;;7.97;;
3083;SDS011;1552;51.952;7.618;2023-11-21T01:00:11;12.43;;;8.57;;
3083;SDS011;1552;51.952;7.618;2023-11-21T01:02:39;15.87;;;8.20;;
3083;SDS011;1552;51.952;7.618;2023-11-21T01:05:06;15.30;;;8.13;;
3083;SDS011;1552;51.952;7.618;2023-11-21T01:07:33;16.73;;;8.50;;
3083;SDS011;1552;51.952;7.618;2023-11-21T01:09:59;13.37;;;7.90;;
3083;SDS011;1552;51.952;7.618;2023-11-21T01:12:26;17.80;;;7.93;;
3083;SDS011;1552;51.952;7.618;2023-11-21T01:14:52;18.93;;;9.20;;
3083;SDS011;1552;51.952;7.618;2023-11-21T01:17:20;18.47;;;8.43;;
3083;SDS011;1552;51.952;7.618;2023-11-21T01:19:47;18.17;;;8.43;;
3083;SDS011;1552;51.952;7.618;2023-11-21T01:22:14;19.10;;;8.37;;
3083;SDS011;1552;51.952;7.618;2023-11-21T01:24:41;17.77;;;8.43;;
3083;SDS011;1552;51.952;7.618;2023-11-21T01:27:07;13.70;;;7.80;;
3083;SDS011;1552;51.952;7.618;2023-11-21T01:29:34;14.23;;;8.30;;
3083;SDS011;1552;51.952;7.618;2023-11-21T01:32:00;32.20;;;8.67;;
3083;SDS011;1552;51.952;7.618;2023-11-21T01:34:28;16.97;;;8.97;;
3083;SDS011;1552;51.952;7.618;2023-11-21T01:36:55;17.57;;;9.10;;
3083;SDS011;1552;51.952;7.618;2023-11-21T01:39:22;15.27;;;8.07;;
3083;SDS011;1552;51.952;7.618;2023-11-21T01:41:48;14.80;;;8.20;;
3083;SDS011;1552;51.952;7.618;2023-11-21T01:44:15;17.80;;;8.50;;
3083;SDS011;1552;51.952;7.618;2023-11-21T01:46:42;14.47;;;8.00;;
3083;SDS011;1552;51.952;7.618;2023-11-21T01:49:09;15.57;;;8.47;;
3083;SDS011;1552;51.952;7.618;2023-11-21T01:51:39;14.60;;;7.70;;
3083;SDS011;1552;51.952;7.618;2023-11-21T01:54:06;19.53;;;9.00;;
3083;SDS011;1552;51.952;7.618;2023-11-21T01:56:32;15.53;;;8.27;;
3083;SDS011;1552;51.952;7.618;2023-11-21T01:58:59;15.57;;;8.57;;
3083;SDS011;1552;51.952;7.618;2023-11-21T02:01:25;14.87;;;8.10;;
3083;SDS011;1552;51.952;7.618;2023-11-21T02:03:51;17.97;;;8.17;;
3083;SDS011;1552;51.952;7.618;2023-11-21T02:06:18;18.20;;;7.63;;
3083;SDS011;1552;51.952;7.618;2023-11-21T02:08:46;15.03;;;7.97;;
3083;SDS011;1552;51.952;7.618;2023-11-21T02:11:12;15.83;;;8.23;;
3083;SDS011;1552;51.952;7.618;2023-11-21T02:13:38;16.73;;;8.33;;
3083;SDS011;1552;51.952;7.618;2023-11-21T02:16:08;11.33;;;7.77;;
3083;SDS011;1552;51.952;7.618;2023-11-21T02:18:34;16.93;;;8.17;;
3083;SDS011;1552;51.952;7.618;2023-11-21T02:21:03;13.53;;;7.50;;
3083;SDS011;1552;51.952;7.618;2023-11-21T02:23:31;13.17;;;7.37;;
3083;SDS011;1552;51.952;7.618;2023-11-21T02:25:58;13.63;;;8.13;;
3083;SDS011;1552;51.952;7.618;2023-11-21T02:28:24;16.27;;;7.87;;
3083;SDS011;1552;51.952;7.618;2023-11-21T02:30:51;16.13;;;8.03;;
3083;SDS011;1552;51.952;7.618;2023-11-21T02:33:20;11.80;;;7.77;;
3083;SDS011;1552;51.952;7.618;2023-11-21T02:35:47;20.10;;;7.87;;
3083;SDS011;1552;51.952;7.618;2023-11-21T02:38:13;16.43;;;8.13;;
3083;SDS011;1552;51.952;7.618;2023-11-21T02:40:42;15.10;;;8.20;;
3083;SDS011;1552;51.952;7.618;2023-11-21T02:43:08;16.67;;;8.40;;
3083;SDS011;1552;51.952;7.618;2023-11-21T02:45:34;14.83;;;8.50;;
3083;SDS011;1552;51.952;7.618;2023-11-21T02:48:01;17.47;;;9.67;;
3083;SDS011;1552;51.952;7.618;2023-11-21T02:50:28;16.67;;;9.43;;
3083;SDS011;1552;51.952;7.618;2023-11-21T02:52:55;16.23;;;8.47;;
3083;SDS011;1552;51.952;7.618;2023-11-21T02:55:22;15.77;;;8.40;;
3083;SDS011;1552;51.952;7.618;2023-11-21T02:57:51;12.90;;;8.33;;
3083;SDS011;1552;51.952;7.618;2023-11-21T03:00:17;14.90;;;8.20;;
3083;SDS011;1552;51.952;7.618;2023-11-21T03:02:43;16.03;;;8.60;;
3083;SDS011;1552;51.952;7.618;2023-11-21T03:05:10;12.70;;;7.73;;
3083;SDS011;1552;51.952;7.618;2023-11-21T03:07:36;15.63;;;8.93;;
3083;SDS011;1552;51.952;7.618;2023-11-21T03:10:03;18.10;;;8.00;;
3083;SDS011;1552;51.952;7.618;2023-11-21T03:12:30;17.53;;;8.43;;
3083;SDS011;1552;51.952;7.618;2023-11-21T03:14:58;12.07;;;8.13;;
3083;SDS011;1552;51.952;7.618;2023-11-21T03:17:24;19.33;;;8.67;;
3083;SDS011;1552;51.952;7.618;2023-11-21T03:19:50;12.13;;;8.83;;
3083;SDS011;1552;51.952;7.618;2023-11-21T03:22:17;22.30;;;8.57;;
3083;SDS011;1552;51.952;7.618;2023-11-21T03:24:44;17.23;;;9.57;;
3083;SDS011;1552;51.952;7.618;2023-11-21T03:27:10;14.53;;;8.70;;
3083;SDS011;1552;51.952;7.618;2023-11-21T03:29:37;12.93;;;8.53;;
3083;SDS011;1552;51.952;7.618;2023-11-21T03:32:06;21.63;;;8.70;;
3083;SDS011;1552;51.952;7.618;2023-11-21T03:34:32;15.27;;;8.80;;
3083;SDS011;1552;51.952;7.618;2023-11-21T03:36:59;15.60;;;9.53;;
3083;SDS011;1552;51.952;7.618;2023-11-21T03:39:25;13.47;;;8.10;;
3083;SDS011;1552;51.952;7.618;2023-11-21T03:41:51;16.97;;;8.53;;
3083;SDS011;1552;51.952;7.618;2023-11-21T03:44:18;16.57;;;9.23;;
3083;SDS011;1552;51.952;7.618;2023-11-21T03:46:44;26.43;;;9.13;;
3083;SDS011;1552;51.952;7.618;2023-11-21T03:49:12;16.10;;;10.13;;
3083;SDS011;1552;51.952;7.618;2023-11-21T03:51:38;15.13;;;9.67;;
3083;SDS011;1552;51.952;7.618;2023-11-21T03:54:04;21.17;;;9.93;;
3083;SDS011;1552;51.952;7.618;2023-11-21T03:56:31;17.50;;;9.87;;
3083;SDS011;1552;51.952;7.618;2023-11-21T03:58:57;18.77;;;9.17;;
3083;SDS011;1552;51.952;7.618;2023-11-21T04:01:24;16.80;;;9.23;;
3083;SDS011;1552;51.952;7.618;2023-11-21T04:03:51;20.87;;;10.07;;
3083;SDS011;1552;51.952;7.618;2023-11-21T04:06:18;25.23;;;11.00;;
3083;SDS011;1552;51.952;7.618;2023-11-21T04:08:45;21.87;;;10.27;;
3083;SDS011;1552;51.952;7.618;2023-11-21T04:11:11;19.03;;;10.67;;
3083;SDS011;1552;51.952;7.618;2023-11-21T04:13:38;18.60;;;10.97;;
3083;SDS011;1552;51.952;7.618;2023-11-21T04:16:04;24.63;;;11.13;;
3083;SDS011;1552;51.952;7.618;2023-11-21T04:18:31;25.23;;;11.77;;
3083;SDS011;1552;51.952;7.618;2023-11-21T04:20:57;22.97;;;12.00;;
3083;SDS011;1552;51.952;7.618;2023-11-21T04:23:25;24.70;;;12.03;;
3083;SDS011;1552;51.952;7.618;2023-11-21T04:25:51;27.33;;;11.67;;
3083;SDS011;1552;51.952;7.618;2023-11-21T04:28:21;34.47;;;13.67;;
3083;SDS011;1552;51.952;7.618;2023-11-21T04:30:47;25.90;;;12.93;;
3083;SDS011;1552;51.952;7.618;2023-11-21T04:33:13;26.57;;;11.83;;
3083;SDS011;1552;51.952;7.618;2023-11-21T04:35:39;21.10;;;11.07;;
3083;SDS011;1552;51.952;7.618;2023-11-21T04:38:06;28.87;;;12.07;;
3083;SDS011;1552;51.952;7.618;2023-11-21T04:40:33;25.37;;;12.90;;
3083;SDS011;1552;51.952;7.618;2023-11-21T04:43:00;22.00;;;11.53;;
3083;SDS011;1552;51.952;7.618;2023-11-21T04:45:27;25.73;;;11.77;;
3083;SDS011;1552;51.952;7.618;2023-11-21T04:47:53;24.50;;;10.97;;
3083;SDS011;1552;51.952;7.618;2023-11-21T04:50:19;24.17;;;11.40;;
3083;SDS011;1552;51.952;7.618;2023-11-21T04:52:46;21.80;;;11.17;;
3083;SDS011;1552;51.952;7.618;2023-11-21T04:55:13;24.77;;;11.23;;
3083;SDS011;1552;51.952;7.618;2023-11-21T04:57:41;35.03;;;12.97;;
3083;SDS011;1552;51.952;7.618;2023-11-21T05:00:08;23.73;;;12.40;;
3083;SDS011;1552;51.952;7.618;2023-11-21T05:02:35;27.00;;;12.33;;
3083;SDS011;1552;51.952;7.618;2023-11-21T05:05:03;21.70;;;11.07;;
3083;SDS011;1552;51.952;7.618;2023-11-21T05:07:30;29.87;;;11.50;;
3083;SDS011;1552;51.952;7.618;2023-11-21T05:09:57;24.93;;;12.40;;
3083;SDS011;1552;51.952;7.618;2023-11-21T05:12:24;22.93;;;11.70;;
3083;SDS011;1552;51.952;7.618;2023-11-21T05:14:51;25.37;;;12.20;;
3083;SDS011;1552;51.952;7.618;2023-11-21T05:17:18;35.50;;;13.77;;
3083;SDS011;1552;51.952;7.618;2023-11-21T05:19:44;32.73;;;12.27;;
3083;SDS011;1552;51.952;7.618;2023-11-21T05:22:13;26.20;;;13.20;;
3083;SDS011;1552;51.952;7.618;2023-11-21T05:24:39;36.00;;;14.50;;
3083;SDS011;1552;51.952;7.618;2023-11-21T05:27:06;26.90;;;12.70;;
3083;SDS011;1552;51.952;7.618;2023-11-21T05:29:34;21.50;;;12.37;;
3083;SDS011;1552;51.952;7.618;2023-11-21T05:32:04;27.83;;;12.70;;
3083;SDS011;1552;51.952;7.618;2023-11-21T05:34:30;31.57;;;13.77;;
3083;SDS011;1552;51.952;7.618;2023-11-21T05:36:56;27.30;;;12.90;;
3083;SDS011;1552;51.952;7.618;2023-11-21T05:39:23;32.67;;;13.37;;
3083;SDS011;1552;51.952;7.618;2023-11-21T05:41:50;22.33;;;11.80;;
3083;SDS011;1552;51.952;7.618;2023-11-21T05:44:16;34.90;;;18.20;;
3083;SDS011;1552;51.952;7.618;2023-11-21T05:46:43;34.27;;;16.13;;
3083;SDS011;1552;51.952;7.618;2023-11-21T05:49:10;24.13;;;12.67;;
3083;SDS011;1552;51.952;7.618;2023-11-21T05:51:37;27.27;;;13.03;;
3083;SDS011;1552;51.952;7.618;2023-11-21T05:54:03;23.90;;;12.13;;
3083;SDS011;1552;51.952;7.618;2023-11-21T05:56:29;23.00;;;10.97;;
3083;SDS011;1552;51.952;7.618;2023-11-21T05:58:56;29.83;;;12.43;;
3083;SDS011;1552;51.952;7.618;2023-11-21T06:01:22;27.33;;;12.10;;
3083;SDS011;1552;51.952;7.618;2023-11-21T06:03:48;27.53;;;12.77;;
3083;SDS011;1552;51.952;7.618;2023-11-21T06:06:16;24.90;;;11.53;;
3083;SDS011;1552;51.952;7.618;2023-11-21T06:08:44;24.47;;;12.33;;
3083;SDS011;1552;51.952;7.618;2023-11-21T06:11:10;32.47;;;14.03;;
3083;SDS011;1552;51.952;7.618;2023-11-21T06:13:37;32.17;;;13.17;;
3083;SDS011;1552;51.952;7.618;2023-11-21T06:16:04;28.50;;;12.80;;
3083;SDS011;1552;51.952;7.618;2023-11-21T06:18:30;27.67;;;13.00;;
3083;SDS011;1552;51.952;7.618;2023-11-21T06:20:57;29.87;;;13.27;;
3083;SDS011;1552;51.952;7.618;2023-11-21T06:23:25;28.67;;;13.93;;
3083;SDS011;1552;51.952;7.618;2023-11-21T06:25:51;24.60;;;12.87;;
3083;SDS011;1552;51.952;7.618;2023-11-21T06:28:17;30.77;;;12.53;;
3083;SDS011;1552;51.952;7.618;2023-11-21T06:30:44;26.00;;;13.67;;
3083;SDS011;1552;51.952;7.618;2023-11-21T06:33:10;26.63;;;12.23;;
3083;SDS011;1552;51.952;7.618;2023-11-21T06:35:37;27.20;;;13.40;;
3083;SDS011;1552;51.952;7.618;2023-11-21T06:38:03;33.50;;;14.33;;
3083;SDS011;1552;51.952;7.618;2023-11-21T06:40:31;23.23;;;12.20;;
3083;SDS011;1552;51.952;7.618;2023-11-21T06:42:58;40.03;;;15.07;;
3083;SDS011;1552;51.952;7.618;2023-11-21T06:45:25;29.30;;;12.23;;
3083;SDS011;1552;51.952;7.618;2023-11-21T06:47:52;33.23;;;13.43;;
3083;SDS011;1552;51.952;7.618;2023-11-21T06:50:18;28.80;;;13.50;;
3083;SDS011;1552;51.952;7.618;2023-11-21T06:52:45;27.53;;;13.93;;
3083;SDS011;1552;51.952;7.618;2023-11-21T06:55:11;28.73;;;13.43;;
3083;SDS011;1552;51.952;7.618;2023-11-21T06:57:39;24.57;;;13.00;;
3083;SDS011;1552;51.952;7.618;2023-11-21T07:00:06;30.17;;;13.30;;
3083;SDS011;1552;51.952;7.618;2023-11-21T07:02:34;28.77;;;13.43;;
3083;SDS011;1552;51.952;7.618;2023-11-21T07:05:00;29.90;;;12.57;;
3083;SDS011;1552;51.952;7.618;2023-11-21T07:07:26;24.37;;;12.57;;
3083;SDS011;1552;51.952;7.618;2023-11-21T07:09:53;25.07;;;12.40;;
3083;SDS011;1552;51.952;7.618;2023-11-21T07:12:19;28.53;;;13.33;;
3083;SDS011;1552;51.952;7.618;2023-11-21T07:14:50;39.70;;;13.57;;
3083;SDS011;1552;51.952;7.618;2023-11-21T07:17:16;30.30;;;13.63;;
3083;SDS011;1552;51.952;7.618;2023-11-21T07:19:42;23.60;;;12.53;;
3083;SDS011;1552;51.952;7.618;2023-11-21T07:22:09;22.50;;;12.03;;
3083;SDS011;1552;51.952;7.618;2023-11-21T07:24:36;33.00;;;12.67;;
3083;SDS011;1552;51.952;7.618;2023-11-21T07:27:03;29.37;;;12.37;;
3083;SDS011;1552;51.952;7.618;2023-11-21T07:29:30;27.93;;;12.43;;
3083;SDS011;1552;51.952;7.618;2023-11-21T07:31:57;29.73;;;13.60;;
3083;SDS011;1552;51.952;7.618;2023-11-21T07:34:24;24.90;;;12.30;;
3083;SDS011;1552;51.952;7.618;2023-11-21T07:36:50;28.10;;;12.03;;
3083;SDS011;1552;51.952;7.618;2023-11-21T07:39:16;32.77;;;14.00;;
3083;SDS011;1552;51.952;7.618;2023-11-21T07:41:43;34.27;;;12.67;;
3083;SDS011;1552;51.952;7.618;2023-11-21T07:44:13;27.27;;;13.67;;
3083;SDS011;1552;51.952;7.618;2023-11-21T07:46:39;25.20;;;13.27;;
3083;SDS011;1552;51.952;7.618;2023-11-21T07:49:08;31.40;;;12.90;;
3083;SDS011;1552;51.952;7.618;2023-11-21T07:51:34;24.90;;;13.07;;
3083;SDS011;1552;51.952;7.618;2023-11-21T07:54:00;31.70;;;12.67;;
3083;SDS011;1552;51.952;7.618;2023-11-21T07:56:26;28.33;;;14.30;;
3083;SDS011;1552;51.952;7.618;2023-11-21T07:58:53;29.67;;;12.70;;
3083;SDS011;1552;51.952;7.618;2023-11-21T08:01:19;25.97;;;13.00;;
3083;SDS011;1552;51.952;7.618;2023-11-21T08:03:46;28.93;;;13.70;;
3083;SDS011;1552;51.952;7.618;2023-11-21T08:06:17;29.80;;;12.73;;
3083;SDS011;1552;51.952;7.618;2023-11-21T08:08:44;30.03;;;13.30;;
3083;SDS011;1552;51.952;7.618;2023-11-21T08:11:10;29.60;;;13.47;;
3083;SDS011;1552;51.952;7.618;2023-11-21T08:13:37;33.77;;;13.50;;
3083;SDS011;1552;51.952;7.618;2023-11-21T08:16:04;30.77;;;14.77;;
3083;SDS011;1552;51.952;7.618;2023-11-21T08:18:32;31.77;;;13.47;;
3083;SDS011;1552;51.952;7.618;2023-11-21T08:20:59;36.43;;;13.57;;
3083;SDS011;1552;51.952;7.618;2023-11-21T08:23:26;34.53;;;14.00;;
3083;SDS011;1552;51.952;7.618;2023-11-21T08:25:53;33.50;;;13.43;;
3083;SDS011;1552;51.952;7.618;2023-11-21T08:28:20;34.37;;;13.80;;
3083;SDS011;1552;51.952;7.618;2023-11-21T08:30:48;27.27;;;13.73;;
3083;SDS011;1552;51.952;7.618;2023-11-21T08:33:14;32.43;;;15.00;;
3083;SDS011;1552;51.952;7.618;2023-11-21T08:35:41;33.80;;;13.80;;
3083;SDS011;1552;51.952;7.618;2023-11-21T08:38:07;30.60;;;14.33;;
3083;SDS011;1552;51.952;7.618;2023-11-21T08:40:36;31.27;;;14.67;;
3083;SDS011;1552;51.952;7.618;2023-11-21T08:43:02;37.17;;;14.60;;
3083;SDS011;1552;51.952;7.618;2023-11-21T08:45:29;38.23;;;15.27;;
3083;SDS011;1552;51.952;7.618;2023-11-21T08:47:56;29.23;;;14.90;;
3083;SDS011;1552;51.952;7.618;2023-11-21T08:50:22;38.03;;;14.40;;
3083;SDS011;1552;51.952;7.618;2023-11-21T08:52:48;32.70;;;14.30;;
3083;SDS011;1552;51.952;7.618;2023-11-21T08:55:14;28.00;;;12.57;;
3083;SDS011;1552;51.952;7.618;2023-11-21T08:57:43;25.40;;;12.53;;
3083;SDS011;1552;51.952;7.618;2023-11-21T09:00:10;24.80;;;11.07;;
3083;SDS011;1552;51.952;7.618;2023-11-21T09:02:37;29.87;;;12.73;;
3083;SDS011;1552;51.952;7.618;2023-11-21T09:05:04;25.40;;;13.23;;
3083;SDS011;1552;51.952;7.618;2023-11-21T09:07:30;31.10;;;12.37;;
3083;SDS011;1552;51.952;7.618;2023-11-21T09:09:57;28.57;;;11.83;;
3083;SDS011;1552;51.952;7.618;2023-11-21T09:12:23;28.23;;;12.47;;
3083;SDS011;1552;51.952;7.618;2023-11-21T09:14:52;25.27;;;12.37;;
3083;SDS011;1552;51.952;7.618;2023-11-21T09:17:18;20.63;;;10.17;;
3083;SDS011;1552;51.952;7.618;2023-11-21T09:19:45;19.90;;;11.13;;
3083;SDS011;1552;51.952;7.618;2023-11-21T09:22:15;18.07;;;10.10;;
3083;SDS011;1552;51.952;7.618;2023-11-21T09:24:41;20.97;;;9.43;;
3083;SDS011;1552;51.952;7.618;2023-11-21T09:27:07;17.80;;;9.10;;
3083;SDS011;1552;51.952;7.618;2023-11-21T09:29:34;19.47;;;8.23;;
3083;SDS011;1552;51.952;7.618;2023-11-21T09:32:02;14.70;;;7.83;;
3083;SDS011;1552;51.952;7.618;2023-11-21T09:34:31;13.17;;;7.00;;
3083;SDS011;1552;51.952;7.618;2023-11-21T09:36:58;13.80;;;8.17;;
3083;SDS011;1552;51.952;7.618;2023-11-21T09:39:24;18.13;;;8.43;;
3083;SDS011;1552;51.952;7.618;2023-11-21T09:41:51;10.93;;;6.97;;
3083;SDS011;1552;51.952;7.618;2023-11-21T09:44:20;12.57;;;6.97;;
3083;SDS011;1552;51.952;7.618;2023-11-21T09:46:48;17.07;;;7.33;;
3083;SDS011;1552;51.952;7.618;2023-11-21T09:49:16;15.60;;;7.67;;
3083;SDS011;1552;51.952;7.618;2023-11-21T09:51:44;14.60;;;6.93;;
3083;SDS011;1552;51.952;7.618;2023-11-21T09:54:11;12.73;;;7.00;;
3083;SDS011;1552;51.952;7.618;2023-11-21T09:56:37;16.90;;;8.00;;
3083;SDS011;1552;51.952;7.618;2023-11-21T09:59:04;11.33;;;6.20;;
3083;SDS011;1552;51.952;7.618;2023-11-21T10:01:33;13.10;;;6.67;;
3083;SDS011;1552;51.952;7.618;2023-11-21T10:04:02;13.07;;;7.07;;
3083;SDS011;1552;51.952;7.618;2023-11-21T10:06:30;9.90;;;5.67;;
3083;SDS011;1552;51.952;7.618;2023-11-21T10:08:56;15.10;;;7.53;;
3083;SDS011;1552;51.952;7.618;2023-11-21T10:11:24;13.27;;;6.97;;
3083;SDS011;1552;51.952;7.618;2023-11-21T10:13:51;12.57;;;6.93;;
3083;SDS011;1552;51.952;7.618;2023-11-21T10:16:19;12.13;;;6.97;;
3083;SDS011;1552;51.952;7.618;2023-11-21T10:18:47;9.27;;;6.90;;
3083;SDS011;1552;51.952;7.618;2023-11-21T10:21:14;13.83;;;7.53;;
3083;SDS011;1552;51.952;7.618;2023-11-21T10:23:42;11.73;;;6.87;;
3083;SDS011;1552;51.952;7.618;2023-11-21T10:26:08;10.77;;;6.23;;
3083;SDS011;1552;51.952;7.618;2023-11-21T10:28:41;17.90;;;6.97;;
3083;SDS011;1552;51.952;7.618;2023-11-21T10:31:07;15.90;;;7.27;;
3083;SDS011;1552;51.952;7.618;2023-11-21T10:33:34;11.83;;;7.27;;
3083;SDS011;1552;51.952;7.618;2023-11-21T10:36:00;14.20;;;7.70;;
3083;SDS011;1552;51.952;7.618;2023-11-21T10:38:27;14.97;;;8.00;;
3083;SDS011;1552;51.952;7.618;2023-11-21T10:40:56;15.67;;;7.63;;
3083;SDS011;1552;51.952;7.618;2023-11-21T10:43:24;14.50;;;7.10;;
3083;SDS011;1552;51.952;7.618;2023-11-21T10:45:51;17.23;;;7.87;;
3083;SDS011;1552;51.952;7.618;2023-11-21T10:48:17;15.43;;;7.13;;
3083;SDS011;1552;51.952;7.618;2023-11-21T10:50:43;14.27;;;7.63;;
3083;SDS011;1552;51.952;7.618;2023-11-21T10:53:11;12.97;;;7.30;;
3083;SDS011;1552;51.952;7.618;2023-11-21T10:55:38;16.03;;;7.47;;
3083;SDS011;1552;51.952;7.618;2023-11-21T10:58:06;11.97;;;8.03;;
3083;SDS011;1552;51.952;7.618;2023-11-21T11:00:35;11.77;;;6.97;;
3083;SDS011;1552;51.952;7.618;2023-11-21T11:03:02;18.63;;;8.43;;
3083;SDS011;1552;51.952;7.618;2023-11-21T11:05:29;18.00;;;8.47;;
3083;SDS011;1552;51.952;7.618;2023-11-21T11:07:58;18.67;;;8.27;;
3083;SDS011;1552;51.952;7.618;2023-11-21T11:10:26;12.73;;;7.07;;
3083;SDS011;1552;51.952;7.618;2023-11-21T11:12:54;15.03;;;7.77;;
3083;SDS011;1552;51.952;7.618;2023-11-21T11:15:23;13.20;;;6.23;;
3083;SDS011;1552;51.952;7.618;2023-11-21T11:17:50;22.07;;;8.90;;
3083;SDS011;1552;51.952;7.618;2023-11-21T11:20:16;14.50;;;7.13;;
3083;SDS011;1552;51.952;7.618;2023-11-21T11:22:47;10.30;;;6.47;;
3083;SDS011;1552;51.952;7.618;2023-11-21T11:27:57;13.90;;;6.43;;
3083;SDS011;1552;51.952;7.618;2023-11-21T11:30:32;11.97;;;7.67;;
3083;SDS011;1552;51.952;7.618;2023-11-21T11:33:04;13.93;;;6.77;;
3083;SDS011;1552;51.952;7.618;2023-11-21T11:35:37;16.47;;;6.63;;
3083;SDS011;1552;51.952;7.618;2023-11-21T11:38:06;11.47;;;6.60;;
3083;SDS011;1552;51.952;7.618;2023-11-21T11:40:39;15.57;;;7.50;;
3083;SDS011;1552;51.952;7.618;2023-11-21T11:43:06;11.90;;;6.33;;
3083;SDS011;1552;51.952;7.618;2023-11-21T11:45:34;13.37;;;6.60;;
3083;SDS011;1552;51.952;7.618;2023-11-21T11:48:06;13.10;;;6.43;;
3083;SDS011;1552;51.952;7.618;2023-11-21T11:50:32;13.93;;;6.70;;
3083;SDS011;1552;51.952;7.618;2023-11-21T11:53:11;10.63;;;5.80;;
3083;SDS011;1552;51.952;7.618;2023-11-21T11:55:38;8.83;;;6.10;;
3083;SDS011;1552;51.952;7.618;2023-11-21T11:58:05;12.97;;;7.13;;
3083;SDS011;1552;51.952;7.618;2023-11-21T12:00:34;14.90;;;7.07;;
3083;SDS011;1552;51.952;7.618;2023-11-21T12:03:03;13.47;;;7.20;;
3083;SDS011;1552;51.952;7.618;2023-11-21T12:05:30;11.53;;;6.87;;
3083;SDS011;1552;51.952;7.618;2023-11-21T12:07:58;15.67;;;6.33;;
3083;SDS011;1552;51.952;7.618;2023-11-21T12:10:26;11.53;;;6.97;;
3083;SDS011;1552;51.952;7.618;2023-11-21T12:12:53;16.27;;;5.90;;
3083;SDS011;1552;51.952;7.618;2023-11-21T12:15:19;7.20;;;5.20;;
3083;SDS011;1552;51.952;7.618;2023-11-21T12:17:48;9.73;;;5.80;;
3083;SDS011;1552;51.952;7.618;2023-11-21T12:20:15;9.53;;;6.07;;
3083;SDS011;1552;51.952;7.618;2023-11-21T12:22:43;8.37;;;5.33;;
3083;SDS011;1552;51.952;7.618;2023-11-21T12:25:09;8.30;;;4.70;;
3083;SDS011;1552;51.952;7.618;2023-11-21T12:27:40;7.33;;;3.83;;
3083;SDS011;1552;51.952;7.618;2023-11-21T12:30:07;5.00;;;3.60;;
3083;SDS011;1552;51.952;7.618;2023-11-21T12:32:38;4.60;;;3.03;;
3083;SDS011;1552;51.952;7.618;2023-11-21T12:35:06;3.87;;;3.13;;
3083;SDS011;1552;51.952;7.618;2023-11-21T12:37:33;4.77;;;3.60;;
3083;SDS011;1552;51.952;7.618;2023-11-21T12:39:59;5.37;;;3.53;;
3083;SDS011;1552;51.952;7.618;2023-11-21T12:42:25;5.43;;;3.40;;
3083;SDS011;1552;51.952;7.618;2023-11-21T12:45:07;6.93;;;3.87;;
3083;SDS011;1552;51.952;7.618;2023-11-21T12:47:34;5.23;;;3.80;;
3083;SDS011;1552;51.952;7.618;2023-11-21T12:50:01;8.93;;;4.83;;
3083;SDS011;1552;51.952;7.618;2023-11-21T12:52:29;6.67;;;3.87;;
3083;SDS011;1552;51.952;7.618;2023-11-21T12:54:55;6.77;;;4.27;;
3083;SDS011;1552;51.952;7.618;2023-11-21T12:57:25;7.90;;;4.60;;
3083;SDS011;1552;51.952;7.618;2023-11-21T12:59:52;8.10;;;4.13;;
3083;SDS011;1552;51.952;7.618;2023-11-21T13:02:19;5.97;;;4.07;;
3083;SDS011;1552;51.952;7.618;2023-11-21T13:04:51;6.77;;;4.10;;
3083;SDS011;1552;51.952;7.618;2023-11-21T13:07:19;6.23;;;3.97;;
3083;SDS011;1552;51.952;7.618;2023-11-21T13:09:49;5.97;;;4.43;;
3083;SDS011;1552;51.952;7.618;2023-11-21T13:12:20;5.97;;;3.77;;
3083;SDS011;1552;51.952;7.618;2023-11-21T13:14:50;4.40;;;3.17;;
3083;SDS011;1552;51.952;7.618;2023-11-21T13:17:17;7.97;;;4.23;;
3083;SDS011;1552;51.952;7.618;2023-11-21T13:19:43;5.30;;;4.03;;
3083;SDS011;1552;51.952;7.618;2023-11-21T13:22:09;6.63;;;4.57;;
3083;SDS011;1552;51.952;7.618;2023-11-21T13:24:36;7.40;;;4.83;;
3083;SDS011;1552;51.952;7.618;2023-11-21T13:27:04;11.90;;;5.37;;
3083;SDS011;1552;51.952;7.618;2023-11-21T13:29:32;8.43;;;4.97;;
3083;SDS011;1552;51.952;7.618;2023-11-21T13:32:00;8.57;;;5.47;;
3083;SDS011;1552;51.952;7.618;2023-11-21T13:34:28;8.43;;;4.93;;
3083;SDS011;1552;51.952;7.618;2023-11-21T13:36:54;13.60;;;5.70;;
3083;SDS011;1552;51.952;7.618;2023-11-21T13:39:23;12.00;;;5.87;;
3083;SDS011;1552;51.952;7.618;2023-11-21T13:41:53;7.30;;;5.13;;
3083;SDS011;1552;51.952;7.618;2023-11-21T13:44:23;11.10;;;5.43;;
3083;SDS011;1552;51.952;7.618;2023-11-21T13:46:59;15.80;;;6.57;;
3083;SDS011;1552;51.952;7.618;2023-11-21T13:49:25;9.70;;;6.23;;
3083;SDS011;1552;51.952;7.618;2023-11-21T13:51:52;12.13;;;7.67;;
3083;SDS011;1552;51.952;7.618;2023-11-21T13:54:20;11.53;;;7.27;;
3083;SDS011;1552;51.952;7.618;2023-11-21T13:56:49;14.10;;;7.93;;
3083;SDS011;1552;51.952;7.618;2023-11-21T13:59:15;16.43;;;8.47;;
3083;SDS011;1552;51.952;7.618;2023-11-21T14:01:48;14.47;;;7.23;;
3083;SDS011;1552;51.952;7.618;2023-11-21T14:04:22;15.17;;;8.37;;
3083;SDS011;1552;51.952;7.618;2023-11-21T14:07:04;12.50;;;7.27;;
3083;SDS011;1552;51.952;7.618;2023-11-21T14:09:45;14.50;;;6.40;;
3083;SDS011;1552;51.952;7.618;2023-11-21T14:12:14;11.10;;;6.97;;
3083;SDS011;1552;51.952;7.618;2023-11-21T14:14:41;11.37;;;7.13;;
3083;SDS011;1552;51.952;7.618;2023-11-21T14:17:10;14.50;;;6.30;;
3083;SDS011;1552;51.952;7.618;2023-11-21T14:19:36;10.20;;;6.27;;
3083;SDS011;1552;51.952;7.618;2023-11-21T14:22:08;10.27;;;6.20;;
3083;SDS011;1552;51.952;7.618;2023-11-21T14:24:34;10.60;;;5.57;;
3083;SDS011;1552;51.952;7.618;2023-11-21T14:27:01;10.87;;;5.53;;
3083;SDS011;1552;51.952;7.618;2023-11-21T14:29:28;9.23;;;5.67;;
3083;SDS011;1552;51.952;7.618;2023-11-21T14:31:55;6.37;;;4.50;;
3083;SDS011;1552;51.952;7.618;2023-11-21T14:34:24;8.07;;;5.33;;
3083;SDS011;1552;51.952;7.618;2023-11-21T14:36:51;8.77;;;4.20;;
3083;SDS011;1552;51.952;7.618;2023-11-21T14:39:17;6.17;;;4.90;;
3083;SDS011;1552;51.952;7.618;2023-11-21T14:41:48;6.43;;;4.23;;
3083;SDS011;1552;51.952;7.618;2023-11-21T14:44:14;8.23;;;5.20;;
3083;SDS011;1552;51.952;7.618;2023-11-21T14:46:41;6.93;;;5.30;;
3083;SDS011;1552;51.952;7.618;2023-11-21T14:49:11;7.93;;;5.30;;
3083;SDS011;1552;51.952;7.618;2023-11-21T14:51:46;11.00;;;5.73;;
3083;SDS011;1552;51.952;7.618;2023-11-21T14:54:25;8.40;;;4.70;;
3083;SDS011;1552;51.952;7.618;2023-11-21T14:57:04;7.00;;;4.37;;
3083;SDS011;1552;51.952;7.618;2023-11-21T14:59:34;12.70;;;4.93;;
3083;SDS011;1552;51.952;7.618;2023-11-21T15:02:00;7.63;;;5.07;;